sensor_id;sensor_type;location;lat;lon;timestamp;pressure;altitude;pressure_sealevel;temperature;humidity
60345;BME280;46188;52.324;8.032;2023-04-27T00:01:47;100894.94;;;4.48;100.00
60345;BME280;46188;52.324;8.032;2023-04-27T00:04:12;100893.72;;;4.40;100.00
60345;BME280;46188;52.324;8.032;2023-04-27T00:06:38;100888.19;;;4.32;100.00
60345;BME280;46188;52.324;8.032;2023-04-27T00:09:03;100897.66;;;4.30;100.00
60345;BME280;46188;52.324;8.032;2023-04-27T00:11:28;100893.00;;;4.23;100.00
60345;BME280;46188;52.324;8.032;2023-04-27T00:13:55;100897.16;;;3.98;100.00
60345;BME280;46188;52.324;8.032;2023-04-27T00:16:20;100889.38;;;3.80;100.00
60345;BME280;46188;52.324;8.032;2023-04-27T00:18:45;100884.88;;;3.76;100.00
60345;BME280;46188;52.324;8.032;2023-04-27T00:21:11;100895.63;;;3.64;100.00
60345;BME280;46188;52.324;8.032;2023-04-27T00:23:36;100887.41;;;3.75;100.00
60345;BME280;46188;52.324;8.032;2023-04-27T00:26:01;100890.63;;;3.88;100.00
60345;BME280;46188;52.324;8.032;2023-04-27T00:28:27;100885.53;;;3.92;100.00
60345;BME280;46188;52.324;8.032;2023-04-27T00:30:52;100889.00;;;3.91;100.00
60345;BME280;46188;52.324;8.032;2023-04-27T00:33:19;100889.75;;;3.88;100.00
60345;BME280;46188;52.324;8.032;2023-04-27T00:35:44;100893.78;;;3.81;100.00
60345;BME280;46188;52.324;8.032;2023-04-27T00:38:10;100892.91;;;3.81;100.00
60345;BME280;46188;52.324;8.032;2023-04-27T00:40:36;100888.06;;;3.70;100.00
60345;BME280;46188;52.324;8.032;2023-04-27T00:43:01;100888.06;;;3.70;100.00
60345;BME280;46188;52.324;8.032;2023-04-27T00:45:26;100894.72;;;3.64;100.00
60345;BME280;46188;52.324;8.032;2023-04-27T00:47:51;100891.88;;;3.58;100.00
60345;BME280;46188;52.324;8.032;2023-04-27T00:50:25;100907.56;;;3.59;100.00
60345;BME280;46188;52.324;8.032;2023-04-27T00:52:51;100906.31;;;3.51;100.00
60345;BME280;46188;52.324;8.032;2023-04-27T00:55:17;100901.63;;;3.44;100.00
60345;BME280;46188;52.324;8.032;2023-04-27T00:57:43;100903.13;;;3.39;100.00
60345;BME280;46188;52.324;8.032;2023-04-27T01:00:08;100910.28;;;3.43;100.00
60345;BME280;46188;52.324;8.032;2023-04-27T01:02:34;100911.09;;;3.42;100.00
60345;BME280;46188;52.324;8.032;2023-04-27T01:05:01;100918.75;;;3.39;100.00
60345;BME280;46188;52.324;8.032;2023-04-27T01:07:27;100914.56;;;3.23;100.00
60345;BME280;46188;52.324;8.032;2023-04-27T01:09:52;100915.53;;;3.25;100.00
60345;BME280;46188;52.324;8.032;2023-04-27T01:12:17;100914.59;;;3.24;100.00
60345;BME280;46188;52.324;8.032;2023-04-27T01:14:43;100921.75;;;3.28;100.00
60345;BME280;46188;52.324;8.032;2023-04-27T01:17:08;100919.81;;;3.24;100.00
60345;BME280;46188;52.324;8.032;2023-04-27T01:19:33;100916.94;;;3.18;100.00
60345;BME280;46188;52.324;8.032;2023-04-27T01:22:00;100909.56;;;3.09;100.00
60345;BME280;46188;52.324;8.032;2023-04-27T01:24:25;100918.78;;;3.03;100.00
60345;BME280;46188;52.324;8.032;2023-04-27T01:26:50;100918.94;;;2.88;100.00
60345;BME280;46188;52.324;8.032;2023-04-27T01:29:18;100921.91;;;2.95;100.00
60345;BME280;46188;52.324;8.032;2023-04-27T01:31:43;100931.53;;;2.97;100.00
60345;BME280;46188;52.324;8.032;2023-04-27T01:34:09;100921.75;;;2.92;100.00
60345;BME280;46188;52.324;8.032;2023-04-27T01:36:34;100935.63;;;2.91;100.00
60345;BME280;46188;52.324;8.032;2023-04-27T01:39:00;100928.53;;;2.89;100.00
60345;BME280;46188;52.324;8.032;2023-04-27T01:41:25;100930.19;;;2.87;100.00
60345;BME280;46188;52.324;8.032;2023-04-27T01:43:50;100929.94;;;2.82;100.00
60345;BME280;46188;52.324;8.032;2023-04-27T01:46:16;100933.50;;;2.84;100.00
60345;BME280;46188;52.324;8.032;2023-04-27T01:48:41;100942.09;;;2.82;100.00
60345;BME280;46188;52.324;8.032;2023-04-27T01:51:06;100947.06;;;2.77;100.00
60345;BME280;46188;52.324;8.032;2023-04-27T01:53:32;100939.59;;;2.67;100.00
60345;BME280;46188;52.324;8.032;2023-04-27T01:55:57;100939.44;;;2.64;100.00
60345;BME280;46188;52.324;8.032;2023-04-27T01:58:23;100941.88;;;2.61;100.00
60345;BME280;46188;52.324;8.032;2023-04-27T02:00:49;100935.72;;;2.58;100.00
60345;BME280;46188;52.324;8.032;2023-04-27T02:03:14;100938.41;;;2.60;100.00
60345;BME280;46188;52.324;8.032;2023-04-27T02:05:39;100952.13;;;2.57;100.00
60345;BME280;46188;52.324;8.032;2023-04-27T02:08:05;100940.53;;;2.51;100.00
60345;BME280;46188;52.324;8.032;2023-04-27T02:10:31;100944.28;;;2.39;100.00
60345;BME280;46188;52.324;8.032;2023-04-27T02:12:56;100943.56;;;2.42;100.00
60345;BME280;46188;52.324;8.032;2023-04-27T02:15:21;100945.50;;;2.46;100.00
60345;BME280;46188;52.324;8.032;2023-04-27T02:17:47;100945.25;;;2.42;100.00
60345;BME280;46188;52.324;8.032;2023-04-27T02:20:12;100946.63;;;2.35;100.00
60345;BME280;46188;52.324;8.032;2023-04-27T02:22:41;100952.94;;;2.22;100.00
60345;BME280;46188;52.324;8.032;2023-04-27T02:25:09;100947.50;;;2.01;100.00
60345;BME280;46188;52.324;8.032;2023-04-27T02:27:39;100958.13;;;1.89;100.00
60345;BME280;46188;52.324;8.032;2023-04-27T02:30:06;100948.88;;;1.94;100.00
60345;BME280;46188;52.324;8.032;2023-04-27T02:32:32;100951.06;;;2.03;100.00
60345;BME280;46188;52.324;8.032;2023-04-27T02:34:57;100957.97;;;2.02;100.00
60345;BME280;46188;52.324;8.032;2023-04-27T02:37:22;100951.13;;;1.88;100.00
60345;BME280;46188;52.324;8.032;2023-04-27T02:39:48;100956.75;;;1.79;100.00
60345;BME280;46188;52.324;8.032;2023-04-27T02:42:13;100961.53;;;1.88;100.00
60345;BME280;46188;52.324;8.032;2023-04-27T02:44:38;100963.06;;;1.68;100.00
60345;BME280;46188;52.324;8.032;2023-04-27T02:47:04;100957.91;;;1.53;100.00
60345;BME280;46188;52.324;8.032;2023-04-27T02:49:29;100957.88;;;1.37;100.00
60345;BME280;46188;52.324;8.032;2023-04-27T02:51:55;100958.66;;;1.19;100.00
60345;BME280;46188;52.324;8.032;2023-04-27T02:54:21;100960.97;;;1.15;100.00
60345;BME280;46188;52.324;8.032;2023-04-27T02:56:46;100958.81;;;1.07;100.00
60345;BME280;46188;52.324;8.032;2023-04-27T02:59:11;100949.63;;;1.13;100.00
60345;BME280;46188;52.324;8.032;2023-04-27T03:01:36;100951.13;;;1.09;100.00
60345;BME280;46188;52.324;8.032;2023-04-27T03:04:02;100947.38;;;1.04;100.00
60345;BME280;46188;52.324;8.032;2023-04-27T03:06:27;100944.16;;;0.93;100.00
60345;BME280;46188;52.324;8.032;2023-04-27T03:08:53;100941.13;;;0.85;100.00
60345;BME280;46188;52.324;8.032;2023-04-27T03:11:18;100940.84;;;0.81;100.00
60345;BME280;46188;52.324;8.032;2023-04-27T03:13:43;100945.63;;;0.88;100.00
60345;BME280;46188;52.324;8.032;2023-04-27T03:16:09;100939.31;;;0.99;100.00
60345;BME280;46188;52.324;8.032;2023-04-27T03:18:38;100953.94;;;1.28;100.00
60345;BME280;46188;52.324;8.032;2023-04-27T03:21:13;100943.91;;;1.35;100.00
60345;BME280;46188;52.324;8.032;2023-04-27T03:23:38;100947.16;;;1.16;100.00
60345;BME280;46188;52.324;8.032;2023-04-27T03:26:08;100940.34;;;1.33;100.00
60345;BME280;46188;52.324;8.032;2023-04-27T03:28:33;100938.97;;;1.39;100.00
60345;BME280;46188;52.324;8.032;2023-04-27T03:30:59;100939.19;;;1.44;100.00
60345;BME280;46188;52.324;8.032;2023-04-27T03:33:24;100930.69;;;1.46;100.00
60345;BME280;46188;52.324;8.032;2023-04-27T03:35:55;100943.34;;;1.40;100.00
60345;BME280;46188;52.324;8.032;2023-04-27T03:38:21;100942.53;;;1.41;100.00
60345;BME280;46188;52.324;8.032;2023-04-27T03:40:46;100938.97;;;1.39;100.00
60345;BME280;46188;52.324;8.032;2023-04-27T03:43:11;100939.19;;;1.44;100.00
60345;BME280;46188;52.324;8.032;2023-04-27T03:45:36;100937.69;;;1.47;100.00
60345;BME280;46188;52.324;8.032;2023-04-27T03:48:02;100948.53;;;1.40;100.00
60345;BME280;46188;52.324;8.032;2023-04-27T03:50:27;100950.22;;;1.08;100.00
60345;BME280;46188;52.324;8.032;2023-04-27T03:52:52;100952.28;;;0.99;100.00
60345;BME280;46188;52.324;8.032;2023-04-27T03:55:17;100941.88;;;1.14;100.00
60345;BME280;46188;52.324;8.032;2023-04-27T03:57:43;100946.38;;;1.02;100.00
60345;BME280;46188;52.324;8.032;2023-04-27T04:00:08;100943.88;;;1.03;100.00
60345;BME280;46188;52.324;8.032;2023-04-27T04:02:38;100948.13;;;0.86;100.00
60345;BME280;46188;52.324;8.032;2023-04-27T04:05:03;100949.00;;;0.57;100.00
60345;BME280;46188;52.324;8.032;2023-04-27T04:07:28;100955.72;;;0.68;100.00
60345;BME280;46188;52.324;8.032;2023-04-27T04:09:54;100949.38;;;0.63;100.00
60345;BME280;46188;52.324;8.032;2023-04-27T04:12:19;100948.03;;;0.55;100.00
60345;BME280;46188;52.324;8.032;2023-04-27T04:14:44;100945.72;;;0.45;100.00
60345;BME280;46188;52.324;8.032;2023-04-27T04:17:12;100948.44;;;0.48;100.00
60345;BME280;46188;52.324;8.032;2023-04-27T04:19:38;100943.03;;;0.58;100.00
60345;BME280;46188;52.324;8.032;2023-04-27T04:22:03;100949.97;;;0.74;100.00
60345;BME280;46188;52.324;8.032;2023-04-27T04:24:28;100954.38;;;0.90;100.00
60345;BME280;46188;52.324;8.032;2023-04-27T04:26:54;100952.94;;;0.80;100.00
60345;BME280;46188;52.324;8.032;2023-04-27T04:29:20;100966.19;;;0.85;100.00
60345;BME280;46188;52.324;8.032;2023-04-27T04:31:45;100966.72;;;0.94;100.00
60345;BME280;46188;52.324;8.032;2023-04-27T04:34:11;100975.03;;;1.03;100.00
60345;BME280;46188;52.324;8.032;2023-04-27T04:36:36;100974.75;;;1.14;100.00
60345;BME280;46188;52.324;8.032;2023-04-27T04:39:02;100974.28;;;1.21;100.00
60345;BME280;46188;52.324;8.032;2023-04-27T04:41:27;100975.28;;;1.23;100.00
60345;BME280;46188;52.324;8.032;2023-04-27T04:43:53;100971.34;;;1.15;100.00
60345;BME280;46188;52.324;8.032;2023-04-27T04:46:18;100981.94;;;1.03;100.00
60345;BME280;46188;52.324;8.032;2023-04-27T04:48:44;100987.38;;;1.07;100.00
60345;BME280;46188;52.324;8.032;2023-04-27T04:51:09;100984.34;;;1.15;100.00
60345;BME280;46188;52.324;8.032;2023-04-27T04:53:34;100987.56;;;1.10;100.00
60345;BME280;46188;52.324;8.032;2023-04-27T04:56:11;100983.91;;;0.92;100.00
60345;BME280;46188;52.324;8.032;2023-04-27T04:58:37;100982.09;;;0.91;100.00
60345;BME280;46188;52.324;8.032;2023-04-27T05:01:02;100987.66;;;0.82;100.00
60345;BME280;46188;52.324;8.032;2023-04-27T05:03:28;100988.03;;;0.88;100.00
60345;BME280;46188;52.324;8.032;2023-04-27T05:05:53;100986.13;;;1.01;100.00
60345;BME280;46188;52.324;8.032;2023-04-27T05:08:18;100988.19;;;1.06;100.00
60345;BME280;46188;52.324;8.032;2023-04-27T05:10:50;100998.88;;;0.96;100.00
60345;BME280;46188;52.324;8.032;2023-04-27T05:13:15;100992.47;;;1.06;100.00
60345;BME280;46188;52.324;8.032;2023-04-27T05:15:41;100991.94;;;1.12;100.00
60345;BME280;46188;52.324;8.032;2023-04-27T05:18:06;100998.19;;;1.30;100.00
60345;BME280;46188;52.324;8.032;2023-04-27T05:20:34;100989.88;;;1.52;100.00
60345;BME280;46188;52.324;8.032;2023-04-27T05:22:59;100990.06;;;1.55;100.00
60345;BME280;46188;52.324;8.032;2023-04-27T05:25:25;100989.69;;;1.64;100.00
60345;BME280;46188;52.324;8.032;2023-04-27T05:27:50;100991.25;;;1.77;100.00
60345;BME280;46188;52.324;8.032;2023-04-27T05:30:16;100997.22;;;1.91;100.00
60345;BME280;46188;52.324;8.032;2023-04-27T05:32:41;101000.78;;;1.93;100.00
60345;BME280;46188;52.324;8.032;2023-04-27T05:35:07;101006.56;;;2.03;100.00
60345;BME280;46188;52.324;8.032;2023-04-27T05:37:32;101015.66;;;2.12;100.00
60345;BME280;46188;52.324;8.032;2023-04-27T05:39:57;101015.13;;;2.17;100.00
60345;BME280;46188;52.324;8.032;2023-04-27T05:42:22;101012.75;;;2.22;100.00
60345;BME280;46188;52.324;8.032;2023-04-27T05:44:47;101007.06;;;2.13;100.00
60345;BME280;46188;52.324;8.032;2023-04-27T05:47:13;101007.81;;;2.10;100.00
60345;BME280;46188;52.324;8.032;2023-04-27T05:49:38;101019.97;;;2.11;100.00
60345;BME280;46188;52.324;8.032;2023-04-27T05:52:03;101019.97;;;2.11;100.00
60345;BME280;46188;52.324;8.032;2023-04-27T05:54:28;101011.94;;;2.23;100.00
60345;BME280;46188;52.324;8.032;2023-04-27T05:56:54;101016.00;;;2.34;100.00
60345;BME280;46188;52.324;8.032;2023-04-27T05:59:19;101015.50;;;2.42;100.00
60345;BME280;46188;52.324;8.032;2023-04-27T06:01:45;101013.31;;;2.49;100.00
60345;BME280;46188;52.324;8.032;2023-04-27T06:04:11;101010.69;;;2.66;100.00
60345;BME280;46188;52.324;8.032;2023-04-27T06:06:36;101009.53;;;2.77;100.00
60345;BME280;46188;52.324;8.032;2023-04-27T06:09:01;101014.00;;;2.80;100.00
60345;BME280;46188;52.324;8.032;2023-04-27T06:11:26;101017.31;;;2.93;100.00
60345;BME280;46188;52.324;8.032;2023-04-27T06:13:52;101009.94;;;3.03;100.00
60345;BME280;46188;52.324;8.032;2023-04-27T06:16:17;101011.38;;;3.14;100.00
60345;BME280;46188;52.324;8.032;2023-04-27T06:18:43;101014.53;;;3.25;100.00
60345;BME280;46188;52.324;8.032;2023-04-27T06:21:08;101015.66;;;3.30;100.00
60345;BME280;46188;52.324;8.032;2023-04-27T06:23:33;101009.75;;;3.34;100.00
60345;BME280;46188;52.324;8.032;2023-04-27T06:25:59;101012.06;;;3.46;100.00
60345;BME280;46188;52.324;8.032;2023-04-27T06:28:24;101010.22;;;3.61;100.00
60345;BME280;46188;52.324;8.032;2023-04-27T06:30:49;101012.56;;;3.75;100.00
60345;BME280;46188;52.324;8.032;2023-04-27T06:33:15;101016.81;;;3.91;100.00
60345;BME280;46188;52.324;8.032;2023-04-27T06:35:40;101018.38;;;4.06;100.00
60345;BME280;46188;52.324;8.032;2023-04-27T06:38:05;101018.91;;;4.17;100.00
60345;BME280;46188;52.324;8.032;2023-04-27T06:40:31;101018.69;;;4.32;100.00
60345;BME280;46188;52.324;8.032;2023-04-27T06:42:56;101019.38;;;4.48;100.00
60345;BME280;46188;52.324;8.032;2023-04-27T06:45:21;101020.94;;;4.64;100.00
60345;BME280;46188;52.324;8.032;2023-04-27T06:47:47;101029.50;;;4.80;100.00
60345;BME280;46188;52.324;8.032;2023-04-27T06:50:13;101018.75;;;4.94;100.00
60345;BME280;46188;52.324;8.032;2023-04-27T06:52:38;101020.06;;;5.04;100.00
60345;BME280;46188;52.324;8.032;2023-04-27T06:55:04;101020.75;;;5.21;100.00
60345;BME280;46188;52.324;8.032;2023-04-27T06:57:29;101020.69;;;5.40;100.00
60345;BME280;46188;52.324;8.032;2023-04-27T06:59:55;101020.16;;;5.49;100.00
60345;BME280;46188;52.324;8.032;2023-04-27T07:02:20;101015.38;;;5.60;100.00
60345;BME280;46188;52.324;8.032;2023-04-27T07:04:45;101018.38;;;5.70;100.00
60345;BME280;46188;52.324;8.032;2023-04-27T07:07:10;101016.34;;;5.84;100.00
60345;BME280;46188;52.324;8.032;2023-04-27T07:09:36;101021.91;;;5.94;100.00
60345;BME280;46188;52.324;8.032;2023-04-27T07:12:01;101022.94;;;5.97;100.00
60345;BME280;46188;52.324;8.032;2023-04-27T07:14:27;101023.63;;;6.14;100.00
60345;BME280;46188;52.324;8.032;2023-04-27T07:16:52;101023.13;;;6.24;100.00
60345;BME280;46188;52.324;8.032;2023-04-27T07:19:17;101020.88;;;6.35;100.00
60345;BME280;46188;52.324;8.032;2023-04-27T07:21:42;101021.34;;;6.47;100.00
60345;BME280;46188;52.324;8.032;2023-04-27T07:24:08;101020.06;;;6.60;100.00
60345;BME280;46188;52.324;8.032;2023-04-27T07:26:33;101014.84;;;6.62;100.00
60345;BME280;46188;52.324;8.032;2023-04-27T07:28:58;101012.81;;;6.77;100.00
60345;BME280;46188;52.324;8.032;2023-04-27T07:31:24;101010.28;;;6.80;100.00
60345;BME280;46188;52.324;8.032;2023-04-27T07:33:49;101002.78;;;6.91;97.93
60345;BME280;46188;52.324;8.032;2023-04-27T07:36:15;101011.81;;;6.99;95.89
60345;BME280;46188;52.324;8.032;2023-04-27T07:38:40;101002.63;;;7.12;92.65
60345;BME280;46188;52.324;8.032;2023-04-27T07:41:06;101006.44;;;7.22;91.36
60345;BME280;46188;52.324;8.032;2023-04-27T07:43:31;101002.56;;;7.36;91.42
60345;BME280;46188;52.324;8.032;2023-04-27T07:45:57;101006.50;;;7.51;89.67
60345;BME280;46188;52.324;8.032;2023-04-27T07:48:22;100996.38;;;7.62;86.56
60345;BME280;46188;52.324;8.032;2023-04-27T07:50:48;101004.44;;;7.69;85.80
60345;BME280;46188;52.324;8.032;2023-04-27T07:53:13;100999.03;;;7.92;84.36
60345;BME280;46188;52.324;8.032;2023-04-27T07:55:38;101002.25;;;8.12;82.64
60345;BME280;46188;52.324;8.032;2023-04-27T07:58:04;100995.56;;;7.93;82.32
60345;BME280;46188;52.324;8.032;2023-04-27T08:00:31;100998.31;;;7.69;82.36
60345;BME280;46188;52.324;8.032;2023-04-27T08:02:56;100997.69;;;7.49;83.28
60345;BME280;46188;52.324;8.032;2023-04-27T08:05:22;100990.13;;;7.31;83.73
60345;BME280;46188;52.324;8.032;2023-04-27T08:07:47;101003.88;;;7.24;84.54
60345;BME280;46188;52.324;8.032;2023-04-27T08:10:14;101003.94;;;7.25;84.18
60345;BME280;46188;52.324;8.032;2023-04-27T08:12:40;100997.88;;;7.28;84.45
60345;BME280;46188;52.324;8.032;2023-04-27T08:15:06;100997.06;;;7.29;84.40
60345;BME280;46188;52.324;8.032;2023-04-27T08:17:31;100999.22;;;7.42;84.85
60345;BME280;46188;52.324;8.032;2023-04-27T08:19:57;101005.72;;;7.53;84.43
60345;BME280;46188;52.324;8.032;2023-04-27T08:22:22;101002.34;;;8.15;82.71
60345;BME280;46188;52.324;8.032;2023-04-27T08:24:47;100998.44;;;8.61;78.49
60345;BME280;46188;52.324;8.032;2023-04-27T08:27:12;101000.38;;;9.02;76.07
60345;BME280;46188;52.324;8.032;2023-04-27T08:29:38;100995.13;;;9.37;74.48
60345;BME280;46188;52.324;8.032;2023-04-27T08:32:03;100998.34;;;9.63;72.82
60345;BME280;46188;52.324;8.032;2023-04-27T08:34:29;101002.44;;;9.88;70.95
60345;BME280;46188;52.324;8.032;2023-04-27T08:36:55;100987.03;;;10.07;70.42
60345;BME280;46188;52.324;8.032;2023-04-27T08:39:22;100990.91;;;10.24;69.56
60345;BME280;46188;52.324;8.032;2023-04-27T08:41:47;101001.16;;;10.51;69.50
60345;BME280;46188;52.324;8.032;2023-04-27T08:44:13;100998.38;;;10.44;67.17
60345;BME280;46188;52.324;8.032;2023-04-27T08:46:38;100999.81;;;10.29;67.27
60345;BME280;46188;52.324;8.032;2023-04-27T08:49:03;101003.84;;;10.53;65.67
60345;BME280;46188;52.324;8.032;2023-04-27T08:51:30;101005.66;;;10.57;64.42
60345;BME280;46188;52.324;8.032;2023-04-27T08:53:56;100994.44;;;10.67;64.86
60345;BME280;46188;52.324;8.032;2023-04-27T08:56:23;100996.50;;;10.82;62.52
60345;BME280;46188;52.324;8.032;2023-04-27T08:58:49;100991.44;;;10.96;61.48
60345;BME280;46188;52.324;8.032;2023-04-27T09:01:15;101001.47;;;11.16;61.34
60345;BME280;46188;52.324;8.032;2023-04-27T09:03:41;101000.16;;;11.44;61.25
60345;BME280;46188;52.324;8.032;2023-04-27T09:06:07;100996.06;;;11.64;60.87
60345;BME280;46188;52.324;8.032;2023-04-27T09:08:45;100997.28;;;11.87;58.88
60345;BME280;46188;52.324;8.032;2023-04-27T09:11:12;100989.78;;;12.17;59.51
60345;BME280;46188;52.324;8.032;2023-04-27T09:13:41;100985.59;;;12.35;59.04
60345;BME280;46188;52.324;8.032;2023-04-27T09:16:10;100987.09;;;12.14;57.88
60345;BME280;46188;52.324;8.032;2023-04-27T09:18:40;100987.00;;;12.05;57.58
60345;BME280;46188;52.324;8.032;2023-04-27T09:21:06;100995.41;;;11.79;56.64
60345;BME280;46188;52.324;8.032;2023-04-27T09:23:36;100988.19;;;11.68;56.22
60345;BME280;46188;52.324;8.032;2023-04-27T09:26:04;100992.00;;;11.87;56.85
60345;BME280;46188;52.324;8.032;2023-04-27T09:28:33;100991.63;;;12.23;56.28
60345;BME280;46188;52.324;8.032;2023-04-27T09:31:01;100992.00;;;11.88;56.36
60345;BME280;46188;52.324;8.032;2023-04-27T09:33:28;100991.69;;;11.65;57.27
60345;BME280;46188;52.324;8.032;2023-04-27T09:35:55;100990.38;;;11.38;57.68
60345;BME280;46188;52.324;8.032;2023-04-27T09:38:22;100986.28;;;11.02;58.16
60345;BME280;46188;52.324;8.032;2023-04-27T09:40:49;100976.22;;;10.81;59.11
60345;BME280;46188;52.324;8.032;2023-04-27T09:43:15;100979.31;;;10.59;58.19
60345;BME280;46188;52.324;8.032;2023-04-27T09:45:41;100974.81;;;10.51;58.25
60345;BME280;46188;52.324;8.032;2023-04-27T09:48:07;100976.59;;;10.54;58.84
60345;BME280;46188;52.324;8.032;2023-04-27T09:50:37;100969.94;;;10.73;58.58
60345;BME280;46188;52.324;8.032;2023-04-27T09:53:31;100974.25;;;10.69;57.99
60345;BME280;46188;52.324;8.032;2023-04-27T09:56:15;100962.50;;;11.01;56.80
60345;BME280;46188;52.324;8.032;2023-04-27T09:59:13;100961.66;;;11.60;55.82
60345;BME280;46188;52.324;8.032;2023-04-27T10:01:46;100962.00;;;11.83;54.44
60345;BME280;46188;52.324;8.032;2023-04-27T10:04:31;100962.97;;;11.90;54.45
60345;BME280;46188;52.324;8.032;2023-04-27T10:07:10;100957.34;;;11.63;53.38
60345;BME280;46188;52.324;8.032;2023-04-27T10:09:42;100962.06;;;11.28;55.17
60345;BME280;46188;52.324;8.032;2023-04-27T10:12:26;100965.47;;;11.19;55.13
60345;BME280;46188;52.324;8.032;2023-04-27T10:14:54;100965.84;;;10.92;55.58
60345;BME280;46188;52.324;8.032;2023-04-27T10:19:54;100962.66;;;10.60;57.21
60345;BME280;46188;52.324;8.032;2023-04-27T10:22:20;100958.56;;;10.77;56.80
60345;BME280;46188;52.324;8.032;2023-04-27T10:24:48;100960.22;;;11.22;55.23
60345;BME280;46188;52.324;8.032;2023-04-27T10:27:16;100962.31;;;10.90;55.06
60345;BME280;46188;52.324;8.032;2023-04-27T10:29:47;100953.13;;;10.66;54.95
60345;BME280;46188;52.324;8.032;2023-04-27T10:32:24;100950.22;;;10.52;54.52
60345;BME280;46188;52.324;8.032;2023-04-27T10:34:51;100950.47;;;10.66;54.50
60345;BME280;46188;52.324;8.032;2023-04-27T10:37:37;100953.31;;;10.79;54.00
60345;BME280;46188;52.324;8.032;2023-04-27T10:40:07;100964.19;;;11.51;52.97
60345;BME280;46188;52.324;8.032;2023-04-27T10:42:34;100961.06;;;11.20;53.52
60345;BME280;46188;52.324;8.032;2023-04-27T10:45:00;100954.00;;;11.20;53.38
60345;BME280;46188;52.324;8.032;2023-04-27T10:47:38;100959.31;;;11.19;54.16
60345;BME280;46188;52.324;8.032;2023-04-27T10:50:07;100950.38;;;11.11;53.93
60345;BME280;46188;52.324;8.032;2023-04-27T10:52:33;100948.56;;;11.10;54.04
60345;BME280;46188;52.324;8.032;2023-04-27T10:55:11;100953.84;;;11.10;52.57
60345;BME280;46188;52.324;8.032;2023-04-27T10:57:44;100945.56;;;10.86;52.83
60345;BME280;46188;52.324;8.032;2023-04-27T11:00:10;100936.81;;;10.89;53.61
60345;BME280;46188;52.324;8.032;2023-04-27T11:02:38;100928.41;;;11.13;53.15
60345;BME280;46188;52.324;8.032;2023-04-27T11:05:14;100931.75;;;11.03;52.42
60345;BME280;46188;52.324;8.032;2023-04-27T11:07:39;100927.28;;;10.97;53.33
60345;BME280;46188;52.324;8.032;2023-04-27T11:10:06;100924.31;;;11.32;52.45
60345;BME280;46188;52.324;8.032;2023-04-27T11:12:32;100915.09;;;11.63;51.50
60345;BME280;46188;52.324;8.032;2023-04-27T11:14:57;100912.41;;;11.60;51.49
60345;BME280;46188;52.324;8.032;2023-04-27T11:17:29;100912.16;;;11.45;50.30
60345;BME280;46188;52.324;8.032;2023-04-27T11:19:54;100906.56;;;11.23;50.81
60345;BME280;46188;52.324;8.032;2023-04-27T11:22:20;100912.38;;;10.99;51.14
60345;BME280;46188;52.324;8.032;2023-04-27T11:24:47;100912.50;;;11.08;51.79
60345;BME280;46188;52.324;8.032;2023-04-27T11:27:13;100907.91;;;11.55;51.21
60345;BME280;46188;52.324;8.032;2023-04-27T11:29:38;100904.59;;;11.70;51.48
60345;BME280;46188;52.324;8.032;2023-04-27T11:32:04;100905.03;;;12.00;50.25
60345;BME280;46188;52.324;8.032;2023-04-27T11:34:29;100902.53;;;12.16;50.43
60345;BME280;46188;52.324;8.032;2023-04-27T11:37:02;100903.81;;;12.50;50.00
60345;BME280;46188;52.324;8.032;2023-04-27T11:39:33;100909.94;;;12.46;49.99
60345;BME280;46188;52.324;8.032;2023-04-27T11:45:03;100904.75;;;12.59;49.35
60345;BME280;46188;52.324;8.032;2023-04-27T11:47:32;100909.56;;;13.01;48.39
60345;BME280;46188;52.324;8.032;2023-04-27T11:50:01;100897.50;;;13.40;47.87
60345;BME280;46188;52.324;8.032;2023-04-27T11:52:30;100900.34;;;13.74;46.82
60345;BME280;46188;52.324;8.032;2023-04-27T11:54:56;100898.53;;;13.72;47.56
60345;BME280;46188;52.324;8.032;2023-04-27T11:57:29;100895.81;;;13.53;45.83
60345;BME280;46188;52.324;8.032;2023-04-27T11:59:56;100894.13;;;13.69;46.03
60345;BME280;46188;52.324;8.032;2023-04-27T12:02:24;100901.25;;;13.79;46.09
60345;BME280;46188;52.324;8.032;2023-04-27T12:04:49;100888.13;;;14.18;45.30
60345;BME280;46188;52.324;8.032;2023-04-27T12:07:15;100896.16;;;14.44;45.33
60345;BME280;46188;52.324;8.032;2023-04-27T12:09:41;100898.81;;;14.49;44.62
60345;BME280;46188;52.324;8.032;2023-04-27T12:12:07;100899.69;;;14.42;45.31
60345;BME280;46188;52.324;8.032;2023-04-27T12:14:32;100896.00;;;13.87;45.93
60345;BME280;46188;52.324;8.032;2023-04-27T12:16:57;100903.84;;;13.67;46.26
60345;BME280;46188;52.324;8.032;2023-04-27T12:19:22;100903.81;;;13.62;46.30
60345;BME280;46188;52.324;8.032;2023-04-27T12:21:51;100897.69;;;13.76;45.47
60345;BME280;46188;52.324;8.032;2023-04-27T12:24:17;100906.59;;;13.86;45.39
60345;BME280;46188;52.324;8.032;2023-04-27T12:26:42;100912.63;;;13.61;45.81
60345;BME280;46188;52.324;8.032;2023-04-27T12:29:08;100898.41;;;13.47;45.64
60345;BME280;46188;52.324;8.032;2023-04-27T12:31:33;100909.69;;;13.18;45.94
60345;BME280;46188;52.324;8.032;2023-04-27T12:33:59;100910.50;;;13.11;45.47
60345;BME280;46188;52.324;8.032;2023-04-27T12:36:25;100903.31;;;12.95;45.31
60345;BME280;46188;52.324;8.032;2023-04-27T12:38:52;100901.63;;;13.03;45.49
60345;BME280;46188;52.324;8.032;2023-04-27T12:41:17;100895.50;;;13.10;45.21
60345;BME280;46188;52.324;8.032;2023-04-27T12:43:42;100892.16;;;13.33;45.37
60345;BME280;46188;52.324;8.032;2023-04-27T12:46:09;100887.13;;;13.80;44.44
60345;BME280;46188;52.324;8.032;2023-04-27T12:48:35;100891.69;;;14.17;44.36
60345;BME280;46188;52.324;8.032;2023-04-27T12:51:00;100898.78;;;14.30;43.95
60345;BME280;46188;52.324;8.032;2023-04-27T12:53:27;100891.78;;;14.69;43.16